Time;durP1;ratioP1;P1;durP2;ratioP2;P2;SDS_P1;SDS_P2;PMS_P1;PMS_P2;Temp;Humidity;BMP_temperature;BMP_pressure;BME280_temperature;BME280_humidity;BME280_pressure;Samples;Min_cycle;Max_cycle;Signal;HPM_P1;HPM_P2
2021/08/12 00:01:17;;;;;;;8.20;5.13;;;;;;;22.28;57.46;100700.59;5130849;27;20033;-63
2021/08/12 00:03:43;;;;;;;7.00;4.55;;;;;;;22.27;57.58;100707.09;5130621;28;20043;-63
2021/08/12 00:06:09;;;;;;;9.20;5.13;;;;;;;22.21;57.55;100705.16;5130577;27;20020;-63
2021/08/12 00:08:34;;;;;;;9.80;5.50;;;;;;;22.10;57.70;100692.06;5130770;27;20405;-64
2021/08/12 00:11:00;;;;;;;10.00;5.10;;;;;;;22.09;57.96;100704.03;5129072;28;20023;-63
2021/08/12 00:13:25;;;;;;;8.32;5.20;;;;;;;22.08;58.43;100705.91;5130298;28;20429;-64
2021/08/12 00:15:51;;;;;;;7.75;5.07;;;;;;;22.06;58.55;100709.91;5130847;28;20022;-63
2021/08/12 00:18:17;;;;;;;7.05;4.70;;;;;;;22.02;58.98;100703.13;5132848;27;20019;-63
2021/08/12 00:20:43;;;;;;;8.23;4.93;;;;;;;21.94;59.54;100700.56;5134788;27;20370;-63
2021/08/12 00:23:08;;;;;;;8.73;5.45;;;;;;;21.92;59.81;100695.28;5134528;27;20054;-64
2021/08/12 00:25:34;;;;;;;9.95;5.38;;;;;;;21.92;60.37;100705.34;5134407;27;20031;-63
2021/08/12 00:27:59;;;;;;;9.15;5.60;;;;;;;21.89;60.55;100703.03;5134507;27;20105;-63
2021/08/12 00:30:25;;;;;;;9.98;5.90;;;;;;;21.85;60.46;100701.72;5134566;27;20039;-64
2021/08/12 00:32:50;;;;;;;10.38;5.40;;;;;;;21.74;60.81;100692.19;5134609;27;20522;-63
2021/08/12 00:35:16;;;;;;;8.25;5.45;;;;;;;21.61;61.19;100678.38;5134195;27;20030;-63
2021/08/12 00:37:41;;;;;;;10.65;5.22;;;;;;;21.69;61.09;100699.25;5134460;27;20015;-63
2021/08/12 00:40:08;;;;;;;7.15;5.05;;;;;;;21.60;61.13;100695.00;5134071;27;20083;-64
2021/08/12 00:42:33;;;;;;;8.93;5.65;;;;;;;21.56;61.45;100697.25;5134424;27;20520;-64
2021/08/12 00:44:59;;;;;;;7.70;4.95;;;;;;;21.49;61.70;100700.97;5134429;27;20035;-63
2021/08/12 00:47:25;;;;;;;9.00;5.15;;;;;;;21.41;61.90;100692.94;5134258;27;20050;-63
2021/08/12 00:49:50;;;;;;;7.32;5.60;;;;;;;21.35;62.05;100697.25;5134460;27;20027;-63
2021/08/12 00:52:16;;;;;;;7.68;5.57;;;;;;;21.27;62.00;100693.81;5133951;27;20027;-63
2021/08/12 00:54:42;;;;;;;7.15;5.38;;;;;;;21.23;62.35;100707.00;5133846;27;20035;-63
2021/08/12 00:57:09;;;;;;;8.32;5.43;;;;;;;21.18;62.46;100703.19;5133793;27;20031;-64
2021/08/12 00:59:40;;;;;;;8.93;5.15;;;;;;;21.12;62.44;100709.41;5134128;27;20019;-63
2021/08/12 01:02:13;;;;;;;8.27;5.60;;;;;;;21.09;62.41;100707.88;5133807;27;20015;-63
2021/08/12 01:04:42;;;;;;;8.23;5.05;;;;;;;21.05;62.45;100705.75;5133719;27;20394;-64
2021/08/12 01:07:13;;;;;;;9.35;5.03;;;;;;;21.00;62.64;100706.34;5133504;27;20053;-63
2021/08/12 01:10:14;;;;;;;9.27;5.38;;;;;;;20.97;62.92;100700.41;5133774;27;20106;-63
2021/08/12 01:13:08;;;;;;;8.32;5.60;;;;;;;20.94;62.85;100709.81;5133733;27;20031;-63
2021/08/12 01:15:41;;;;;;;7.55;5.63;;;;;;;20.90;62.96;100713.94;5133357;27;20519;-63
2021/08/12 01:18:14;;;;;;;7.80;5.10;;;;;;;20.87;62.87;100713.47;5133693;27;20027;-63
2021/08/12 01:20:39;;;;;;;10.43;5.03;;;;;;;20.84;63.09;100711.97;5131967;27;20026;-64
2021/08/12 01:23:08;;;;;;;8.55;5.57;;;;;;;20.81;63.22;100709.63;5133472;27;20034;-63
2021/08/12 01:25:34;;;;;;;10.68;5.63;;;;;;;20.79;63.23;100711.69;5133461;27;20043;-63
2021/08/12 01:28:20;;;;;;;8.55;5.75;;;;;;;20.79;63.57;100727.22;5133247;27;20110;-63
2021/08/12 01:31:01;;;;;;;7.63;5.50;;;;;;;20.78;63.48;100718.19;5133434;27;20118;-63
2021/08/12 01:33:45;;;;;;;9.27;5.40;;;;;;;20.69;63.40;100702.97;5133398;27;20042;-64
2021/08/12 01:36:14;;;;;;;8.10;5.57;;;;;;;20.71;63.59;100716.41;5132890;27;20019;-64
2021/08/12 01:38:41;;;;;;;8.93;5.30;;;;;;;20.70;63.55;100728.38;5133237;27;20156;-64
2021/08/12 01:41:08;;;;;;;10.25;5.95;;;;;;;20.66;63.97;100719.72;5133185;27;20023;-64
2021/08/12 01:43:34;;;;;;;8.65;5.90;;;;;;;20.67;64.30;100726.00;5133224;27;20023;-64
2021/08/12 01:46:01;;;;;;;8.52;5.60;;;;;;;20.66;64.30;100730.63;5131617;27;20054;-64
2021/08/12 01:48:29;;;;;;;7.88;5.43;;;;;;;20.64;64.51;100718.22;5133069;27;20029;-63
2021/08/12 01:50:55;;;;;;;8.57;5.63;;;;;;;20.59;64.73;100715.19;5132962;27;20019;-63
2021/08/12 01:53:22;;;;;;;7.55;5.30;;;;;;;20.61;64.75;100716.72;5133098;27;20034;-64
2021/08/12 01:55:48;;;;;;;7.75;5.75;;;;;;;20.51;65.04;100708.00;5132939;27;20058;-64
2021/08/12 01:58:16;;;;;;;13.20;5.18;;;;;;;20.58;65.50;100724.41;5132795;27;20023;-62
2021/08/12 02:00:47;;;;;;;8.25;5.93;;;;;;;20.55;65.99;100713.91;5132907;27;20098;-62
2021/08/12 02:03:15;;;;;;;6.60;5.03;;;;;;;20.55;66.40;100714.75;5132610;27;20018;-62
2021/08/12 02:05:43;;;;;;;7.53;4.72;;;;;;;20.44;66.41;100701.59;5132475;27;20027;-63
2021/08/12 02:08:09;;;;;;;12.20;5.43;;;;;;;20.49;66.29;100718.22;5132249;27;20023;-63
2021/08/12 02:10:35;;;;;;;8.32;5.88;;;;;;;20.42;66.08;100698.22;5132720;27;20072;-63
2021/08/12 02:13:01;;;;;;;9.88;5.38;;;;;;;20.41;66.01;100707.41;5132463;27;20058;-62
2021/08/12 02:15:27;;;;;;;10.93;5.90;;;;;;;20.35;65.77;100705.47;5132285;27;20130;-62
2021/08/12 02:17:53;;;;;;;9.50;4.80;;;;;;;20.39;65.83;100716.81;5132626;27;20098;-62
2021/08/12 02:20:18;;;;;;;7.85;5.57;;;;;;;20.36;65.92;100714.47;5131949;27;20027;-62
2021/08/12 02:22:48;;;;;;;6.28;5.30;;;;;;;20.35;66.17;100715.50;5132551;27;20019;-62
2021/08/12 02:25:24;;;;;;;7.25;5.40;;;;;;;20.32;66.11;100715.88;5132171;27;20047;-63
2021/08/12 02:27:53;;;;;;;9.52;5.68;;;;;;;20.27;66.50;100721.03;5132036;27;20019;-63
2021/08/12 02:30:19;;;;;;;10.38;5.68;;;;;;;20.18;66.73;100710.22;5132170;27;20491;-64
2021/08/12 02:32:47;;;;;;;10.15;6.07;;;;;;;20.23;67.05;100730.59;5131896;27;20494;-63
2021/08/12 02:35:17;;;;;;;7.65;4.95;;;;;;;20.20;67.14;100731.84;5131878;27;20042;-63
2021/08/12 02:37:43;;;;;;;9.30;6.15;;;;;;;20.15;67.17;100724.22;5131864;27;20019;-63
2021/08/12 02:40:10;;;;;;;7.70;5.93;;;;;;;20.16;67.71;100730.53;5131210;27;20028;-63
2021/08/12 02:42:41;;;;;;;8.95;5.50;;;;;;;20.08;67.68;100725.13;5131766;27;20070;-64
2021/08/12 02:45:07;;;;;;;8.02;5.43;;;;;;;20.11;67.97;100733.81;5131687;27;20114;-63
2021/08/12 02:47:34;;;;;;;8.82;5.55;;;;;;;20.06;68.49;100736.19;5132112;27;20015;-62
2021/08/12 02:50:03;;;;;;;9.15;5.57;;;;;;;20.07;69.16;100735.19;5131833;27;20075;-63
2021/08/12 02:52:29;;;;;;;11.23;5.13;;;;;;;20.04;69.13;100737.41;5131877;27;20061;-62
2021/08/12 02:54:55;;;;;;;8.27;5.82;;;;;;;20.03;68.83;100743.91;5130621;27;20451;-63
2021/08/12 02:57:22;;;;;;;8.27;5.60;;;;;;;19.99;68.61;100746.13;5131812;27;20106;-63
2021/08/12 02:59:48;;;;;;;10.40;5.68;;;;;;;19.96;68.81;100751.13;5130215;27;20031;-62
2021/08/12 03:02:17;;;;;;;9.35;5.25;;;;;;;19.92;68.65;100756.09;5131568;27;20466;-62
2021/08/12 03:04:43;;;;;;;7.75;6.13;;;;;;;19.86;68.86;100748.66;5131628;27;20047;-63
2021/08/12 03:07:10;;;;;;;10.68;5.95;;;;;;;19.82;68.71;100752.78;5131301;27;20023;-63
2021/08/12 03:09:37;;;;;;;7.28;5.40;;;;;;;19.77;69.07;100749.75;5131609;27;20034;-61
2021/08/12 03:12:03;;;;;;;8.77;5.50;;;;;;;19.73;69.41;100755.72;5131411;27;20039;-62
2021/08/12 03:14:30;;;;;;;8.98;5.32;;;;;;;19.72;69.59;100757.63;5131341;27;20027;-63
2021/08/12 03:16:57;;;;;;;10.40;5.97;;;;;;;19.70;70.01;100761.56;5131577;27;20023;-62
2021/08/12 03:19:24;;;;;;;7.63;5.35;;;;;;;19.64;70.67;100762.28;5131166;27;20034;-62
2021/08/12 03:22:02;;;;;;;11.82;5.93;;;;;;;19.66;71.26;100769.25;5131258;27;20019;-62
2021/08/12 03:24:29;;;;;;;10.32;5.63;;;;;;;19.62;71.61;100767.91;5131159;27;20023;-62
2021/08/12 03:26:55;;;;;;;13.55;7.47;;;;;;;19.61;71.72;100777.09;5130392;27;20023;-61
2021/08/12 03:29:21;;;;;;;14.05;6.03;;;;;;;19.60;72.10;100771.81;5131423;27;20019;-62
2021/08/12 03:31:47;;;;;;;11.77;6.03;;;;;;;19.60;72.37;100774.53;5130977;27;20401;-61
2021/08/12 03:34:12;;;;;;;7.97;5.55;;;;;;;19.56;71.80;100768.63;5130980;27;20043;-62
2021/08/12 03:36:38;;;;;;;9.63;5.72;;;;;;;19.54;71.87;100778.84;5130925;27;20035;-62
2021/08/12 03:39:03;;;;;;;10.13;5.35;;;;;;;19.52;71.76;100775.47;5131143;27;20055;-62
2021/08/12 03:41:29;;;;;;;12.65;6.38;;;;;;;19.49;71.77;100781.28;5130840;27;20019;-62
2021/08/12 03:43:54;;;;;;;12.65;5.95;;;;;;;19.48;71.82;100790.44;5131141;27;20110;-62
2021/08/12 03:46:20;;;;;;;18.05;6.30;;;;;;;19.46;71.81;100786.22;5130643;27;20035;-62
2021/08/12 03:48:45;;;;;;;15.60;6.00;;;;;;;19.45;71.30;100787.25;5129550;27;20553;-62
2021/08/12 03:51:10;;;;;;;14.02;5.60;;;;;;;19.47;71.48;100787.91;5130610;27;20100;-61
2021/08/12 03:53:36;;;;;;;15.40;5.70;;;;;;;19.42;71.39;100796.63;5129933;27;20025;-62
2021/08/12 03:56:01;;;;;;;11.30;6.38;;;;;;;19.43;71.33;100798.31;5130348;27;20020;-62
2021/08/12 03:58:27;;;;;;;15.10;6.20;;;;;;;19.38;71.48;100786.28;5131035;27;20106;-62
2021/08/12 04:00:55;;;;;;;12.10;5.47;;;;;;;19.37;71.80;100790.88;5130748;27;20106;-61
2021/08/12 04:03:20;;;;;;;13.48;6.07;;;;;;;19.40;72.10;100800.53;5130431;27;20093;-61
2021/08/12 04:05:46;;;;;;;13.25;6.68;;;;;;;19.41;73.02;100799.53;5130057;28;20023;-62
2021/08/12 04:08:12;;;;;;;19.92;6.47;;;;;;;19.40;73.95;100801.41;5128741;28;20072;-61
2021/08/12 04:10:38;;;;;;;14.25;6.10;;;;;;;19.38;74.40;100800.72;5129926;27;20023;-62
2021/08/12 04:13:04;;;;;;;11.82;6.97;;;;;;;19.37;73.76;100801.75;5129007;27;20091;-62
2021/08/12 04:15:29;;;;;;;18.20;6.68;;;;;;;19.36;74.12;100807.38;5130434;28;20042;-61
2021/08/12 04:17:55;;;;;;;21.38;7.35;;;;;;;19.39;75.97;100810.59;5128717;27;20019;-61
2021/08/12 04:20:20;;;;;;;34.17;7.55;;;;;;;19.43;75.81;100814.63;5129588;28;20042;-62
2021/08/12 04:22:46;;;;;;;26.83;7.95;;;;;;;19.47;74.95;100815.97;5130209;28;20084;-62
2021/08/12 04:25:12;;;;;;;23.90;7.90;;;;;;;19.55;73.37;100820.53;5128684;28;20023;-61
2021/08/12 04:27:38;;;;;;;26.00;7.07;;;;;;;19.58;72.60;100807.38;5129991;27;20080;-61
2021/08/12 04:30:06;;;;;;;22.02;7.22;;;;;;;19.68;72.65;100808.03;5129747;28;20050;-61
2021/08/12 04:32:32;;;;;;;16.13;7.47;;;;;;;19.82;72.05;100811.81;5126976;27;20449;-61
2021/08/12 04:34:57;;;;;;;13.80;6.68;;;;;;;19.94;71.94;100826.69;5130756;28;20054;-61
2021/08/12 04:37:23;;;;;;;11.63;6.28;;;;;;;20.01;70.81;100820.34;5130291;28;20093;-61
2021/08/12 04:39:48;;;;;;;10.07;6.18;;;;;;;20.12;70.41;100817.19;5130911;27;20163;-61
2021/08/12 04:42:14;;;;;;;10.15;6.13;;;;;;;20.25;69.85;100826.63;5130877;28;20494;-62
2021/08/12 04:44:39;;;;;;;15.52;6.63;;;;;;;20.37;68.70;100817.00;5130958;27;20065;-62
2021/08/12 04:47:05;;;;;;;8.98;6.03;;;;;;;20.49;68.40;100819.06;5126133;28;20096;-63
2021/08/12 04:49:30;;;;;;;11.55;6.63;;;;;;;20.56;67.69;100810.97;5127249;27;20027;-63
2021/08/12 04:51:55;;;;;;;12.43;6.85;;;;;;;20.77;67.15;100819.28;5128122;28;20106;-63
2021/08/12 04:54:21;;;;;;;11.18;6.65;;;;;;;20.92;66.84;100828.31;5129470;28;20038;-62
2021/08/12 04:56:46;;;;;;;14.13;6.50;;;;;;;21.06;66.04;100827.47;5129353;27;20038;-63
2021/08/12 04:59:12;;;;;;;12.68;6.40;;;;;;;21.18;65.82;100820.50;5128952;27;20031;-63
2021/08/12 05:01:37;;;;;;;9.85;6.72;;;;;;;21.36;64.94;100827.25;5129162;27;20022;-63
2021/08/12 05:04:03;;;;;;;22.70;7.38;;;;;;;21.57;64.18;100823.69;5128966;27;20027;-62
2021/08/12 05:06:28;;;;;;;17.80;6.88;;;;;;;21.85;63.85;100821.91;5132987;27;20502;-63
2021/08/12 05:08:54;;;;;;;19.67;7.53;;;;;;;22.14;63.33;100828.09;5132604;27;20424;-62
2021/08/12 05:11:19;;;;;;;12.15;6.13;;;;;;;22.41;62.37;100831.03;5131088;27;20084;-62
2021/08/12 05:13:46;;;;;;;22.17;8.00;;;;;;;22.57;61.71;100826.13;5132805;27;20084;-63
2021/08/12 05:16:12;;;;;;;11.40;5.93;;;;;;;22.74;60.92;100819.31;5132637;27;20529;-63
2021/08/12 05:18:37;;;;;;;11.57;6.43;;;;;;;22.92;60.01;100829.75;5132808;27;20058;-63
2021/08/12 05:21:03;;;;;;;10.80;5.40;;;;;;;23.09;59.58;100837.44;5134098;27;20390;-63
2021/08/12 05:23:29;;;;;;;14.02;6.65;;;;;;;23.24;59.36;100829.94;5134201;27;20489;-62
2021/08/12 05:25:55;;;;;;;24.90;5.93;;;;;;;23.38;58.81;100831.66;5134090;27;20034;-63
2021/08/12 05:28:20;;;;;;;20.08;6.15;;;;;;;23.54;58.36;100835.94;5132190;27;20039;-63
2021/08/12 05:30:46;;;;;;;10.32;5.30;;;;;;;23.68;58.11;100827.56;5133907;27;20496;-63
2021/08/12 05:33:11;;;;;;;9.38;5.38;;;;;;;23.84;57.67;100827.19;5133161;27;20486;-62
2021/08/12 05:35:36;;;;;;;10.15;5.93;;;;;;;24.00;57.23;100826.81;5133782;27;20049;-63
2021/08/12 05:38:02;;;;;;;11.43;6.13;;;;;;;24.17;56.76;100833.56;5133679;27;20047;-63
2021/08/12 05:40:27;;;;;;;14.25;5.78;;;;;;;24.32;56.08;100831.44;5133279;27;20474;-63
2021/08/12 05:42:53;;;;;;;19.00;5.97;;;;;;;24.51;55.74;100834.41;5132005;27;20030;-64
2021/08/12 05:45:18;;;;;;;18.13;5.97;;;;;;;24.65;55.23;100839.69;5133365;27;20027;-63
2021/08/12 05:47:44;;;;;;;18.67;6.43;;;;;;;24.82;55.04;100834.63;5133111;27;20034;-64
2021/08/12 05:50:09;;;;;;;17.67;6.13;;;;;;;24.98;54.63;100839.66;5133087;27;20022;-63
2021/08/12 05:52:37;;;;;;;15.52;6.47;;;;;;;25.14;54.01;100833.66;5131476;27;20025;-63
2021/08/12 05:55:04;;;;;;;14.70;6.00;;;;;;;25.28;53.45;100827.91;5131976;27;20023;-63
2021/08/12 05:57:29;;;;;;;13.30;6.10;;;;;;;25.46;52.97;100838.22;5133276;27;20375;-63
2021/08/12 05:59:55;;;;;;;12.32;5.85;;;;;;;25.65;52.41;100840.03;5133006;27;20054;-62
2021/08/12 06:02:20;;;;;;;9.57;5.35;;;;;;;25.75;51.47;100829.41;5132425;27;20016;-63
2021/08/12 06:04:46;;;;;;;11.35;5.40;;;;;;;25.93;51.21;100833.06;5133055;27;20076;-63
2021/08/12 06:07:13;;;;;;;11.40;5.25;;;;;;;26.11;50.90;100837.84;5130521;27;20023;-62
2021/08/12 06:09:38;;;;;;;9.23;5.10;;;;;;;26.28;49.99;100841.75;5131225;27;20087;-63
2021/08/12 06:12:05;;;;;;;9.93;5.07;;;;;;;26.45;49.52;100834.63;5130781;27;20023;-63
2021/08/12 06:14:30;;;;;;;7.60;4.90;;;;;;;26.54;48.63;100833.28;5132467;27;20041;-63
2021/08/12 06:16:55;;;;;;;7.25;4.38;;;;;;;26.71;48.24;100845.41;5131674;27;20108;-61
2021/08/12 06:19:21;;;;;;;7.43;4.70;;;;;;;26.83;47.84;100840.00;5132202;27;20344;-61
2021/08/12 06:21:46;;;;;;;8.85;4.55;;;;;;;27.00;47.28;100846.59;5132327;27;20019;-61
2021/08/12 06:24:14;;;;;;;7.13;4.30;;;;;;;27.16;47.53;100849.59;5132481;27;20055;-61
2021/08/12 06:26:43;;;;;;;6.43;4.30;;;;;;;27.27;46.95;100846.09;5130945;27;20019;-62
2021/08/12 06:29:10;;;;;;;6.57;4.63;;;;;;;27.46;46.76;100847.78;5132618;27;20031;-62
2021/08/12 06:31:36;;;;;;;10.27;4.32;;;;;;;27.63;46.33;100842.47;5130859;27;20039;-62
2021/08/12 06:34:01;;;;;;;9.98;4.82;;;;;;;27.71;45.58;100843.00;5132272;27;20055;-61
2021/08/12 06:36:27;;;;;;;11.07;4.70;;;;;;;27.89;45.51;100847.66;5131567;27;20510;-62
2021/08/12 06:38:53;;;;;;;8.95;5.00;;;;;;;28.03;45.69;100849.97;5131836;27;20019;-61
2021/08/12 06:41:19;;;;;;;9.18;4.53;;;;;;;28.19;45.03;100851.22;5130019;27;20015;-61
2021/08/12 06:43:44;;;;;;;8.20;4.35;;;;;;;28.35;44.57;100853.28;5129515;27;20078;-62
2021/08/12 06:46:10;;;;;;;8.05;4.22;;;;;;;28.44;44.35;100840.81;5131904;27;20111;-62
2021/08/12 06:48:35;;;;;;;6.82;4.28;;;;;;;28.54;44.38;100841.09;5131961;27;20152;-62
2021/08/12 06:51:01;;;;;;;7.45;4.05;;;;;;;28.67;44.17;100845.53;5131621;27;20027;-62
2021/08/12 06:53:26;;;;;;;7.03;4.38;;;;;;;28.79;44.14;100838.09;5131611;27;20019;-62
2021/08/12 06:55:52;;;;;;;7.10;4.32;;;;;;;28.92;43.83;100848.91;5130468;27;20478;-62
2021/08/12 06:58:17;;;;;;;7.10;4.80;;;;;;;29.05;43.22;100843.16;5131537;27;20102;-62
2021/08/12 07:00:43;;;;;;;8.38;4.60;;;;;;;29.14;43.12;100841.72;5131627;27;20031;-62
2021/08/12 07:03:08;;;;;;;10.10;4.80;;;;;;;29.25;42.91;100844.44;5131528;27;20064;-62
2021/08/12 07:05:33;;;;;;;9.93;4.22;;;;;;;29.34;42.76;100842.97;5131420;27;20474;-62
2021/08/12 07:08:00;;;;;;;5.25;4.53;;;;;;;29.47;42.47;100853.75;5131392;27;20094;-62
2021/08/12 07:10:25;;;;;;;7.95;4.38;;;;;;;29.57;42.09;100853.13;5129975;27;20031;-62
2021/08/12 07:12:51;;;;;;;5.82;4.07;;;;;;;29.71;41.87;100852.63;5131406;27;20052;-62
2021/08/12 07:15:16;;;;;;;11.63;4.53;;;;;;;29.76;41.40;100849.94;5129833;27;20034;-62
2021/08/12 07:17:41;;;;;;;8.77;4.38;;;;;;;29.88;41.51;100855.44;5131299;27;20046;-62
2021/08/12 07:20:08;;;;;;;9.52;4.75;;;;;;;29.97;41.71;100859.47;5131306;27;20059;-63
2021/08/12 07:22:33;;;;;;;8.88;3.97;;;;;;;30.04;40.88;100851.88;5129699;27;20566;-63
2021/08/12 07:25:00;;;;;;;7.00;3.78;;;;;;;30.15;40.91;100850.97;5131307;27;20133;-62
2021/08/12 07:27:25;;;;;;;5.75;4.18;;;;;;;30.26;40.16;100850.94;5129326;27;20030;-63
2021/08/12 07:29:51;;;;;;;5.82;3.95;;;;;;;30.36;40.26;100851.13;5131128;27;20043;-63
2021/08/12 07:32:17;;;;;;;8.48;4.20;;;;;;;30.42;40.02;100850.13;5130704;27;20027;-62
2021/08/12 07:34:42;;;;;;;6.03;4.18;;;;;;;30.51;39.92;100854.16;5130580;27;20060;-62
2021/08/12 07:37:08;;;;;;;9.90;4.43;;;;;;;30.58;39.79;100854.81;5131762;27;20504;-62
2021/08/12 07:39:33;;;;;;;7.35;4.10;;;;;;;30.65;39.18;100865.72;5130684;27;20027;-62
2021/08/12 07:41:59;;;;;;;6.97;4.47;;;;;;;30.69;38.58;100860.50;5131008;27;20022;-62
2021/08/12 07:44:24;;;;;;;6.45;4.50;;;;;;;30.74;38.64;100857.84;5130674;27;20466;-63
2021/08/12 07:46:49;;;;;;;8.75;4.10;;;;;;;30.80;38.62;100854.91;5130808;27;20136;-64
2021/08/12 07:49:15;;;;;;;5.32;3.88;;;;;;;30.88;38.65;100857.25;5130289;27;20047;-63
2021/08/12 07:51:40;;;;;;;6.32;3.88;;;;;;;30.93;38.20;100860.09;5130922;27;20027;-64
2021/08/12 07:54:06;;;;;;;4.88;4.13;;;;;;;30.93;38.31;100860.09;5131030;27;20027;-64
2021/08/12 07:56:32;;;;;;;5.30;3.88;;;;;;;31.07;38.33;100872.50;5130570;27;20033;-63
2021/08/12 07:58:57;;;;;;;5.82;4.05;;;;;;;31.15;38.46;100863.75;5130672;27;20027;-64
2021/08/12 08:01:23;;;;;;;4.68;3.95;;;;;;;31.27;38.35;100866.44;5129211;27;20502;-63
2021/08/12 08:03:48;;;;;;;6.28;3.83;;;;;;;31.39;38.00;100870.75;5130296;27;20359;-63
2021/08/12 08:06:14;;;;;;;5.47;4.07;;;;;;;31.49;37.63;100870.88;5130384;27;20019;-63
2021/08/12 08:08:40;;;;;;;7.13;4.30;;;;;;;31.59;37.42;100867.41;5131030;27;20380;-64
2021/08/12 08:11:06;;;;;;;4.53;3.80;;;;;;;31.68;37.30;100866.69;5130583;27;20016;-64
2021/08/12 08:13:32;;;;;;;4.10;3.70;;;;;;;31.71;36.73;100852.31;5129058;28;20035;-63
2021/08/12 08:15:58;;;;;;;4.38;3.90;;;;;;;31.88;36.55;100872.50;5129214;28;20732;-64
2021/08/12 08:18:24;;;;;;;7.13;4.18;;;;;;;31.96;36.60;100876.75;5130080;27;20065;-63
2021/08/12 08:20:50;;;;;;;7.28;3.83;;;;;;;32.00;36.67;100864.88;5130753;27;20047;-63
2021/08/12 08:23:16;;;;;;;10.27;4.55;;;;;;;32.13;36.25;100875.56;5130167;27;20431;-62
2021/08/12 08:25:41;;;;;;;9.25;4.80;;;;;;;32.20;36.02;100873.41;5130764;28;20019;-63
2021/08/12 08:28:07;;;;;;;4.97;3.75;;;;;;;32.30;35.77;100876.28;5130390;27;20035;-63
2021/08/12 08:30:35;;;;;;;7.25;3.85;;;;;;;32.35;35.63;100868.03;5130165;27;20039;-63
2021/08/12 08:33:01;;;;;;;8.43;3.80;;;;;;;32.46;35.55;100874.50;5130158;27;20384;-63
2021/08/12 08:35:28;;;;;;;7.63;3.70;;;;;;;32.45;35.10;100853.38;5130043;27;20035;-63
2021/08/12 08:37:55;;;;;;;6.10;3.85;;;;;;;32.58;34.85;100861.28;5130438;27;20015;-63
2021/08/12 08:40:22;;;;;;;8.93;4.25;;;;;;;32.62;34.54;100856.03;5132422;27;20033;-63
2021/08/12 08:42:48;;;;;;;7.10;3.45;;;;;;;32.68;34.64;100854.97;5134374;27;20042;-63
2021/08/12 08:45:21;;;;;;;5.38;3.90;;;;;;;32.72;34.95;100854.16;5134490;27;20475;-63
2021/08/12 08:47:51;;;;;;;6.25;3.45;;;;;;;32.82;34.72;100857.00;5133947;27;20486;-63
2021/08/12 08:50:19;;;;;;;9.63;3.85;;;;;;;32.89;33.66;100854.03;5133808;27;20027;-63
2021/08/12 08:52:47;;;;;;;6.80;3.65;;;;;;;32.93;33.04;100846.81;5134013;27;20025;-63
2021/08/12 08:55:21;;;;;;;7.45;3.80;;;;;;;32.95;32.93;100839.91;5132998;27;20494;-63
2021/08/12 08:57:55;;;;;;;7.07;3.92;;;;;;;32.95;32.18;100841.84;5134172;27;20489;-63
2021/08/12 09:00:22;;;;;;;8.77;3.65;;;;;;;33.00;31.75;100855.75;5133967;27;20508;-63
2021/08/12 09:02:49;;;;;;;6.32;3.20;;;;;;;33.00;31.29;100864.94;5132647;27;20118;-63
2021/08/12 09:05:15;;;;;;;5.10;3.40;;;;;;;32.96;31.37;100858.25;5134021;27;20027;-63
2021/08/12 09:07:42;;;;;;;4.47;3.28;;;;;;;32.97;31.63;100861.84;5134158;27;20027;-63
2021/08/12 09:10:10;;;;;;;6.88;4.30;;;;;;;32.94;32.16;100867.97;5133717;27;20488;-63
2021/08/12 09:12:36;;;;;;;6.10;3.55;;;;;;;32.93;31.23;100863.50;5132271;27;20394;-63
2021/08/12 09:15:08;;;;;;;4.13;3.10;;;;;;;32.95;31.30;100867.72;5133884;27;20023;-63
2021/08/12 09:17:35;;;;;;;7.28;3.92;;;;;;;32.93;30.82;100867.13;5132253;27;20027;-63
2021/08/12 09:20:06;;;;;;;4.75;3.38;;;;;;;32.95;31.34;100866.88;5133530;27;20097;-63
2021/08/12 09:22:48;;;;;;;10.43;3.88;;;;;;;32.91;31.08;100865.72;5133469;27;20051;-64
2021/08/12 09:25:15;;;;;;;4.97;3.60;;;;;;;32.89;31.46;100863.22;5133720;27;20015;-64
2021/08/12 09:27:40;;;;;;;5.15;3.30;;;;;;;32.86;31.83;100868.47;5133460;27;20035;-63
2021/08/12 09:30:15;;;;;;;5.63;3.38;;;;;;;32.77;31.45;100862.53;5133417;27;20035;-63
2021/08/12 09:32:49;;;;;;;6.15;3.50;;;;;;;32.78;31.72;100868.94;5133392;27;20039;-63
2021/08/12 09:35:25;;;;;;;;;;;;;;;32.68;30.97;100878.03;5134163;27;20038;-64
2021/08/12 09:37:51;;;;;;;6.35;3.40;;;;;;;32.69;31.30;100867.75;5133193;27;19907;-64
2021/08/12 09:40:24;;;;;;;6.63;3.40;;;;;;;32.65;32.05;100861.06;5133196;27;20363;-63
2021/08/12 09:42:58;;;;;;;11.73;3.45;;;;;;;32.63;32.09;100873.25;5133468;27;20015;-64
2021/08/12 09:45:26;;;;;;;3.95;3.38;;;;;;;32.57;31.99;100865.97;5133423;27;20023;-64
2021/08/12 09:47:52;;;;;;;8.65;3.28;;;;;;;32.51;32.33;100877.34;5133138;27;20486;-63
2021/08/12 09:50:27;;;;;;;6.32;3.67;;;;;;;32.47;32.45;100871.44;5131092;27;20395;-64
2021/08/12 09:52:52;;;;;;;3.88;3.47;;;;;;;32.45;32.89;100868.13;5133112;27;20023;-64
2021/08/12 09:55:21;;;;;;;5.35;3.00;;;;;;;32.44;32.63;100874.75;5131387;27;20499;-64
2021/08/12 09:57:51;;;;;;;5.82;3.53;;;;;;;32.43;32.84;100872.25;5133000;27;20041;-63
2021/08/12 10:00:47;;;;;;;8.10;3.75;;;;;;;32.35;33.09;100854.16;5132549;27;20031;-63
2021/08/12 10:03:41;;;;;;;5.43;3.38;;;;;;;32.35;32.50;100858.84;5133220;27;20023;-64
2021/08/12 10:06:24;;;;;;;9.98;3.83;;;;;;;32.32;32.19;100860.19;5114835;27;20035;-64
2021/08/12 10:08:51;;;;;;;6.95;3.83;;;;;;;32.28;32.14;100859.03;5132763;27;20026;-64
2021/08/12 10:11:30;;;;;;;5.72;3.70;;;;;;;32.27;32.52;100862.09;5132388;27;20027;-63
2021/08/12 10:14:01;;;;;;;4.50;3.33;;;;;;;32.26;32.68;100861.25;5132707;27;20015;-64
2021/08/12 10:16:28;;;;;;;5.60;3.20;;;;;;;32.26;31.94;100855.69;5132961;27;20046;-64
2021/08/12 10:18:56;;;;;;;5.35;3.53;;;;;;;32.27;31.78;100854.56;5132873;27;20035;-63
2021/08/12 10:21:22;;;;;;;8.27;3.95;;;;;;;32.28;31.23;100850.69;5131989;27;20146;-64
2021/08/12 10:23:56;;;;;;;6.80;3.30;;;;;;;32.35;31.22;100861.63;5131242;27;20050;-64
2021/08/12 10:26:25;;;;;;;6.05;3.58;;;;;;;32.34;30.97;100860.78;5132118;27;20484;-63
2021/08/12 10:28:55;;;;;;;9.68;3.75;;;;;;;32.34;31.17;100862.75;5132629;27;20462;-64
2021/08/12 10:31:25;;;;;;;12.00;4.03;;;;;;;32.29;31.36;100849.59;5131924;27;20034;-64
2021/08/12 10:33:51;;;;;;;4.07;3.38;;;;;;;32.30;30.94;100858.75;5131817;27;20035;-64
2021/08/12 10:36:18;;;;;;;4.63;3.35;;;;;;;32.21;31.27;100857.59;5130748;27;20045;-64
2021/08/12 10:38:43;;;;;;;5.63;3.45;;;;;;;32.18;31.22;100850.59;5132321;27;20091;-64
2021/08/12 10:41:10;;;;;;;4.60;3.15;;;;;;;32.15;31.26;100850.31;5131967;27;20030;-64
2021/08/12 10:43:36;;;;;;;7.93;3.60;;;;;;;32.17;31.14;100851.72;5132327;27;20062;-64
2021/08/12 10:46:03;;;;;;;5.60;3.58;;;;;;;32.11;31.10;100841.66;5132112;27;20047;-63
2021/08/12 10:48:30;;;;;;;5.90;3.50;;;;;;;32.10;31.11;100848.31;5131552;27;20031;-64
2021/08/12 10:51:12;;;;;;;7.47;3.38;;;;;;;32.03;31.39;100842.13;5131895;27;20094;-64
2021/08/12 10:53:39;;;;;;;5.57;3.45;;;;;;;32.03;31.71;100842.13;5131814;27;20476;-64
2021/08/12 10:56:07;;;;;;;3.72;3.10;;;;;;;32.02;31.47;100843.22;5131911;27;20027;-64
2021/08/12 10:58:33;;;;;;;8.23;3.22;;;;;;;32.01;31.92;100841.56;5132046;27;20446;-64
2021/08/12 11:01:00;;;;;;;5.70;4.18;;;;;;;32.00;31.56;100839.03;5129648;27;20033;-64
2021/08/12 11:03:32;;;;;;;5.60;4.00;;;;;;;32.02;31.70;100845.19;5131530;27;20022;-64
2021/08/12 11:06:05;;;;;;;6.22;3.60;;;;;;;31.99;31.99;100841.00;5130847;27;20034;-64
2021/08/12 11:08:49;;;;;;;4.45;3.65;;;;;;;31.98;31.40;100839.28;5131835;27;20539;-64
2021/08/12 11:11:20;;;;;;;4.35;3.28;;;;;;;31.96;31.66;100837.91;5131995;27;20097;-64
2021/08/12 11:13:53;;;;;;;7.32;3.50;;;;;;;31.90;31.97;100828.69;5130947;27;20030;-65
2021/08/12 11:16:20;;;;;;;5.28;3.90;;;;;;;31.96;31.99;100835.97;5130231;27;20023;-65
2021/08/12 11:19:03;;;;;;;11.23;3.90;;;;;;;31.96;32.44;100835.97;5121411;27;20551;-65
2021/08/12 11:21:32;;;;;;;5.87;3.77;;;;;;;31.98;32.26;100839.28;5131717;27;20115;-65
2021/08/12 11:24:17;;;;;;;6.20;3.63;;;;;;;31.99;32.12;100826.28;5131262;27;20029;-65